sensor_id;sensor_type;location;lat;lon;timestamp;temperature;humidity
2687;DHT22;1353;51.386;7.028;2022-08-19T00:01:54;16.20;1.00
2687;DHT22;1353;51.386;7.028;2022-08-19T00:04:23;16.20;99.90
2687;DHT22;1353;51.386;7.028;2022-08-19T00:06:50;16.20;99.90
2687;DHT22;1353;51.386;7.028;2022-08-19T00:09:19;16.20;1.00
2687;DHT22;1353;51.386;7.028;2022-08-19T00:11:47;16.10;1.00
2687;DHT22;1353;51.386;7.028;2022-08-19T00:14:16;15.90;1.00
2687;DHT22;1353;51.386;7.028;2022-08-19T00:16:44;15.90;28.10
2687;DHT22;1353;51.386;7.028;2022-08-19T00:19:12;15.80;99.90
2687;DHT22;1353;51.386;7.028;2022-08-19T00:21:39;15.80;1.00
2687;DHT22;1353;51.386;7.028;2022-08-19T00:24:06;15.80;1.00
2687;DHT22;1353;51.386;7.028;2022-08-19T00:26:33;15.70;1.00
2687;DHT22;1353;51.386;7.028;2022-08-19T00:29:03;15.70;99.90
2687;DHT22;1353;51.386;7.028;2022-08-19T00:31:30;15.70;99.90
2687;DHT22;1353;51.386;7.028;2022-08-19T00:33:57;15.70;97.40
2687;DHT22;1353;51.386;7.028;2022-08-19T00:36:24;15.70;1.00
2687;DHT22;1353;51.386;7.028;2022-08-19T00:38:51;15.60;99.90
2687;DHT22;1353;51.386;7.028;2022-08-19T00:41:20;15.70;99.90
2687;DHT22;1353;51.386;7.028;2022-08-19T00:43:57;16.10;99.90
2687;DHT22;1353;51.386;7.028;2022-08-19T00:46:26;16.10;99.90
2687;DHT22;1353;51.386;7.028;2022-08-19T00:48:54;15.90;99.90
2687;DHT22;1353;51.386;7.028;2022-08-19T00:51:21;15.90;99.90
2687;DHT22;1353;51.386;7.028;2022-08-19T00:53:49;15.80;1.00
2687;DHT22;1353;51.386;7.028;2022-08-19T00:56:15;15.70;99.90
2687;DHT22;1353;51.386;7.028;2022-08-19T00:58:42;15.60;1.00
2687;DHT22;1353;51.386;7.028;2022-08-19T01:01:10;16.10;99.90
2687;DHT22;1353;51.386;7.028;2022-08-19T01:03:38;16.20;99.90
2687;DHT22;1353;51.386;7.028;2022-08-19T01:06:05;16.20;1.00
2687;DHT22;1353;51.386;7.028;2022-08-19T01:08:32;16.00;70.80
2687;DHT22;1353;51.386;7.028;2022-08-19T01:11:00;15.70;1.00
2687;DHT22;1353;51.386;7.028;2022-08-19T01:13:30;15.60;99.90
2687;DHT22;1353;51.386;7.028;2022-08-19T01:16:01;15.60;1.00
2687;DHT22;1353;51.386;7.028;2022-08-19T01:18:29;15.60;27.30
2687;DHT22;1353;51.386;7.028;2022-08-19T01:21:02;15.60;99.90
2687;DHT22;1353;51.386;7.028;2022-08-19T01:23:33;15.60;99.90
2687;DHT22;1353;51.386;7.028;2022-08-19T01:26:14;15.60;62.40
2687;DHT22;1353;51.386;7.028;2022-08-19T01:28:42;15.50;17.00
2687;DHT22;1353;51.386;7.028;2022-08-19T01:31:12;15.40;50.60
2687;DHT22;1353;51.386;7.028;2022-08-19T01:33:39;15.40;6.90
2687;DHT22;1353;51.386;7.028;2022-08-19T01:36:08;15.40;1.00
2687;DHT22;1353;51.386;7.028;2022-08-19T01:38:39;15.40;99.90
2687;DHT22;1353;51.386;7.028;2022-08-19T01:41:06;15.40;99.90
2687;DHT22;1353;51.386;7.028;2022-08-19T01:43:34;15.30;99.90
2687;DHT22;1353;51.386;7.028;2022-08-19T01:46:01;15.30;99.90
2687;DHT22;1353;51.386;7.028;2022-08-19T01:48:33;15.20;99.90
2687;DHT22;1353;51.386;7.028;2022-08-19T01:51:00;15.10;99.90
2687;DHT22;1353;51.386;7.028;2022-08-19T01:53:27;15.10;99.90
2687;DHT22;1353;51.386;7.028;2022-08-19T01:55:55;15.20;99.90
2687;DHT22;1353;51.386;7.028;2022-08-19T01:58:25;15.30;99.90
2687;DHT22;1353;51.386;7.028;2022-08-19T02:00:54;15.20;99.90
2687;DHT22;1353;51.386;7.028;2022-08-19T02:03:21;15.10;99.90
2687;DHT22;1353;51.386;7.028;2022-08-19T02:05:54;15.00;99.90
2687;DHT22;1353;51.386;7.028;2022-08-19T02:08:21;15.20;99.90
2687;DHT22;1353;51.386;7.028;2022-08-19T02:10:48;15.20;99.90
2687;DHT22;1353;51.386;7.028;2022-08-19T02:13:17;15.00;99.90
2687;DHT22;1353;51.386;7.028;2022-08-19T02:15:44;15.10;99.90
2687;DHT22;1353;51.386;7.028;2022-08-19T02:18:11;15.00;99.90
2687;DHT22;1353;51.386;7.028;2022-08-19T02:20:39;15.10;99.90
2687;DHT22;1353;51.386;7.028;2022-08-19T02:23:06;15.20;99.90
2687;DHT22;1353;51.386;7.028;2022-08-19T02:25:33;15.10;99.90
2687;DHT22;1353;51.386;7.028;2022-08-19T02:28:00;14.90;1.00
2687;DHT22;1353;51.386;7.028;2022-08-19T02:30:28;14.90;1.00
2687;DHT22;1353;51.386;7.028;2022-08-19T02:32:55;14.90;99.90
2687;DHT22;1353;51.386;7.028;2022-08-19T02:35:22;15.10;1.00
2687;DHT22;1353;51.386;7.028;2022-08-19T02:37:49;15.00;1.00
2687;DHT22;1353;51.386;7.028;2022-08-19T02:40:34;15.00;1.00
2687;DHT22;1353;51.386;7.028;2022-08-19T02:43:01;15.00;1.00
2687;DHT22;1353;51.386;7.028;2022-08-19T02:45:32;14.90;1.00
2687;DHT22;1353;51.386;7.028;2022-08-19T02:47:59;14.90;9.50
2687;DHT22;1353;51.386;7.028;2022-08-19T02:50:26;14.90;15.30
2687;DHT22;1353;51.386;7.028;2022-08-19T02:52:53;14.70;1.00
2687;DHT22;1353;51.386;7.028;2022-08-19T02:55:19;14.80;14.10
2687;DHT22;1353;51.386;7.028;2022-08-19T02:57:46;14.80;17.60
2687;DHT22;1353;51.386;7.028;2022-08-19T03:00:13;14.70;20.10
2687;DHT22;1353;51.386;7.028;2022-08-19T03:02:42;14.80;68.40
2687;DHT22;1353;51.386;7.028;2022-08-19T03:05:09;14.80;86.70
2687;DHT22;1353;51.386;7.028;2022-08-19T03:07:36;15.00;79.60
2687;DHT22;1353;51.386;7.028;2022-08-19T03:10:03;15.00;64.70
2687;DHT22;1353;51.386;7.028;2022-08-19T03:12:31;14.80;28.30
2687;DHT22;1353;51.386;7.028;2022-08-19T03:14:57;14.90;54.30
2687;DHT22;1353;51.386;7.028;2022-08-19T03:17:24;15.10;59.80
2687;DHT22;1353;51.386;7.028;2022-08-19T03:19:52;15.20;49.50
2687;DHT22;1353;51.386;7.028;2022-08-19T03:22:19;15.30;39.80
2687;DHT22;1353;51.386;7.028;2022-08-19T03:24:46;15.40;46.00
2687;DHT22;1353;51.386;7.028;2022-08-19T03:27:12;15.30;26.60
2687;DHT22;1353;51.386;7.028;2022-08-19T03:29:39;15.30;25.60
2687;DHT22;1353;51.386;7.028;2022-08-19T03:32:06;15.20;36.60
2687;DHT22;1353;51.386;7.028;2022-08-19T03:34:34;15.10;65.00
2687;DHT22;1353;51.386;7.028;2022-08-19T03:37:06;15.10;77.30
2687;DHT22;1353;51.386;7.028;2022-08-19T03:39:35;15.00;88.10
2687;DHT22;1353;51.386;7.028;2022-08-19T03:42:03;14.90;95.60
2687;DHT22;1353;51.386;7.028;2022-08-19T03:44:31;14.70;43.30
2687;DHT22;1353;51.386;7.028;2022-08-19T03:46:59;14.70;52.40
2687;DHT22;1353;51.386;7.028;2022-08-19T03:49:29;14.80;74.50
2687;DHT22;1353;51.386;7.028;2022-08-19T03:51:57;14.70;58.70
2687;DHT22;1353;51.386;7.028;2022-08-19T03:54:27;14.70;57.70
2687;DHT22;1353;51.386;7.028;2022-08-19T03:56:55;14.70;82.10
2687;DHT22;1353;51.386;7.028;2022-08-19T03:59:25;14.70;87.50
2687;DHT22;1353;51.386;7.028;2022-08-19T04:01:54;14.60;90.90
2687;DHT22;1353;51.386;7.028;2022-08-19T04:04:21;14.60;95.00
2687;DHT22;1353;51.386;7.028;2022-08-19T04:06:48;14.60;96.90
2687;DHT22;1353;51.386;7.028;2022-08-19T04:09:17;14.60;99.90
2687;DHT22;1353;51.386;7.028;2022-08-19T04:11:48;14.60;99.90
2687;DHT22;1353;51.386;7.028;2022-08-19T04:14:17;14.60;99.90
2687;DHT22;1353;51.386;7.028;2022-08-19T04:16:45;14.90;99.90
2687;DHT22;1353;51.386;7.028;2022-08-19T04:19:13;15.00;99.90
2687;DHT22;1353;51.386;7.028;2022-08-19T04:21:40;14.90;99.90
2687;DHT22;1353;51.386;7.028;2022-08-19T04:24:09;14.90;99.90
2687;DHT22;1353;51.386;7.028;2022-08-19T04:26:36;14.90;99.90
2687;DHT22;1353;51.386;7.028;2022-08-19T04:29:07;15.10;45.90
2687;DHT22;1353;51.386;7.028;2022-08-19T04:31:34;15.00;1.00
2687;DHT22;1353;51.386;7.028;2022-08-19T04:34:04;15.00;1.00
2687;DHT22;1353;51.386;7.028;2022-08-19T04:36:33;14.90;57.20
2687;DHT22;1353;51.386;7.028;2022-08-19T04:39:03;15.00;99.90
2687;DHT22;1353;51.386;7.028;2022-08-19T04:41:33;15.10;99.80
2687;DHT22;1353;51.386;7.028;2022-08-19T04:44:18;15.00;32.40
2687;DHT22;1353;51.386;7.028;2022-08-19T04:46:45;15.10;92.00
2687;DHT22;1353;51.386;7.028;2022-08-19T04:49:13;15.30;99.90
2687;DHT22;1353;51.386;7.028;2022-08-19T04:51:42;15.40;99.90
2687;DHT22;1353;51.386;7.028;2022-08-19T04:54:10;15.30;99.90
2687;DHT22;1353;51.386;7.028;2022-08-19T04:56:37;15.30;99.90
2687;DHT22;1353;51.386;7.028;2022-08-19T04:59:05;15.40;99.90
2687;DHT22;1353;51.386;7.028;2022-08-19T05:01:33;15.60;99.90
2687;DHT22;1353;51.386;7.028;2022-08-19T05:04:03;15.50;99.90
2687;DHT22;1353;51.386;7.028;2022-08-19T05:06:31;15.50;99.90
2687;DHT22;1353;51.386;7.028;2022-08-19T05:08:59;15.60;99.90
2687;DHT22;1353;51.386;7.028;2022-08-19T05:11:28;15.60;99.90
2687;DHT22;1353;51.386;7.028;2022-08-19T05:13:55;15.70;99.90
2687;DHT22;1353;51.386;7.028;2022-08-19T05:16:23;15.80;99.90
2687;DHT22;1353;51.386;7.028;2022-08-19T05:18:53;16.00;99.90
2687;DHT22;1353;51.386;7.028;2022-08-19T05:21:39;16.10;99.90
2687;DHT22;1353;51.386;7.028;2022-08-19T05:24:23;16.20;99.90
2687;DHT22;1353;51.386;7.028;2022-08-19T05:26:52;16.50;99.90
2687;DHT22;1353;51.386;7.028;2022-08-19T05:29:23;16.70;99.90
2687;DHT22;1353;51.386;7.028;2022-08-19T05:31:51;16.80;99.90
2687;DHT22;1353;51.386;7.028;2022-08-19T05:34:22;16.80;99.90
2687;DHT22;1353;51.386;7.028;2022-08-19T05:36:51;16.70;99.90
2687;DHT22;1353;51.386;7.028;2022-08-19T05:39:21;16.70;99.90
2687;DHT22;1353;51.386;7.028;2022-08-19T05:41:51;16.70;99.90
2687;DHT22;1353;51.386;7.028;2022-08-19T05:44:19;16.70;99.90
2687;DHT22;1353;51.386;7.028;2022-08-19T05:46:47;16.80;99.90
2687;DHT22;1353;51.386;7.028;2022-08-19T05:49:15;16.80;99.90
2687;DHT22;1353;51.386;7.028;2022-08-19T05:51:43;16.80;99.90
2687;DHT22;1353;51.386;7.028;2022-08-19T05:54:10;16.90;99.90
2687;DHT22;1353;51.386;7.028;2022-08-19T05:56:39;16.90;99.90
2687;DHT22;1353;51.386;7.028;2022-08-19T05:59:07;17.10;99.90
2687;DHT22;1353;51.386;7.028;2022-08-19T06:01:37;17.20;99.90
2687;DHT22;1353;51.386;7.028;2022-08-19T06:04:05;17.50;99.90
2687;DHT22;1353;51.386;7.028;2022-08-19T06:06:33;18.70;99.90
2687;DHT22;1353;51.386;7.028;2022-08-19T06:09:01;20.80;99.90
2687;DHT22;1353;51.386;7.028;2022-08-19T06:11:33;21.60;99.90
2687;DHT22;1353;51.386;7.028;2022-08-19T06:14:04;21.70;99.90
2687;DHT22;1353;51.386;7.028;2022-08-19T06:16:34;22.60;99.90
2687;DHT22;1353;51.386;7.028;2022-08-19T06:19:03;23.80;99.90
2687;DHT22;1353;51.386;7.028;2022-08-19T06:21:33;23.70;99.90
2687;DHT22;1353;51.386;7.028;2022-08-19T06:24:01;24.00;99.90
2687;DHT22;1353;51.386;7.028;2022-08-19T06:26:29;24.50;99.90
2687;DHT22;1353;51.386;7.028;2022-08-19T06:28:56;23.70;99.90
2687;DHT22;1353;51.386;7.028;2022-08-19T06:31:26;23.20;99.90
2687;DHT22;1353;51.386;7.028;2022-08-19T06:33:53;23.60;99.90
2687;DHT22;1353;51.386;7.028;2022-08-19T06:36:21;23.10;99.90
2687;DHT22;1353;51.386;7.028;2022-08-19T06:38:53;23.60;99.90
2687;DHT22;1353;51.386;7.028;2022-08-19T06:41:21;24.00;99.90
2687;DHT22;1353;51.386;7.028;2022-08-19T06:43:47;24.00;99.90
2687;DHT22;1353;51.386;7.028;2022-08-19T06:46:16;23.00;99.90
2687;DHT22;1353;51.386;7.028;2022-08-19T06:48:44;22.70;99.90
2687;DHT22;1353;51.386;7.028;2022-08-19T06:51:11;23.50;99.90
2687;DHT22;1353;51.386;7.028;2022-08-19T06:53:41;23.50;99.90
2687;DHT22;1353;51.386;7.028;2022-08-19T06:56:13;23.50;99.90
2687;DHT22;1353;51.386;7.028;2022-08-19T06:58:41;23.10;99.90
2687;DHT22;1353;51.386;7.028;2022-08-19T07:01:09;22.70;99.90
2687;DHT22;1353;51.386;7.028;2022-08-19T07:03:37;22.50;99.90
2687;DHT22;1353;51.386;7.028;2022-08-19T07:06:06;22.90;99.90
2687;DHT22;1353;51.386;7.028;2022-08-19T07:08:36;22.70;99.90
2687;DHT22;1353;51.386;7.028;2022-08-19T07:11:05;23.40;99.90
2687;DHT22;1353;51.386;7.028;2022-08-19T07:13:32;24.20;99.90
2687;DHT22;1353;51.386;7.028;2022-08-19T07:16:04;24.50;99.90
2687;DHT22;1353;51.386;7.028;2022-08-19T07:18:31;24.70;99.90
2687;DHT22;1353;51.386;7.028;2022-08-19T07:21:03;25.30;99.90
2687;DHT22;1353;51.386;7.028;2022-08-19T07:23:31;24.90;99.90
2687;DHT22;1353;51.386;7.028;2022-08-19T07:25:57;25.40;99.90
2687;DHT22;1353;51.386;7.028;2022-08-19T07:28:24;25.60;99.90
2687;DHT22;1353;51.386;7.028;2022-08-19T07:30:51;26.60;99.90
2687;DHT22;1353;51.386;7.028;2022-08-19T07:33:20;26.90;99.90
2687;DHT22;1353;51.386;7.028;2022-08-19T07:35:46;27.00;99.90
2687;DHT22;1353;51.386;7.028;2022-08-19T07:38:15;27.30;99.90
2687;DHT22;1353;51.386;7.028;2022-08-19T07:40:42;27.20;99.90
2687;DHT22;1353;51.386;7.028;2022-08-19T07:43:11;27.20;99.90
2687;DHT22;1353;51.386;7.028;2022-08-19T07:45:38;25.60;99.90
2687;DHT22;1353;51.386;7.028;2022-08-19T07:48:05;25.80;99.90
2687;DHT22;1353;51.386;7.028;2022-08-19T07:50:33;26.30;99.90
2687;DHT22;1353;51.386;7.028;2022-08-19T07:53:00;25.60;99.90
2687;DHT22;1353;51.386;7.028;2022-08-19T07:55:26;25.30;99.90
2687;DHT22;1353;51.386;7.028;2022-08-19T07:57:53;25.30;99.90
2687;DHT22;1353;51.386;7.028;2022-08-19T08:00:20;25.40;99.90
2687;DHT22;1353;51.386;7.028;2022-08-19T08:02:47;24.90;99.90
2687;DHT22;1353;51.386;7.028;2022-08-19T08:05:14;25.30;99.90
2687;DHT22;1353;51.386;7.028;2022-08-19T08:07:59;25.20;99.90
2687;DHT22;1353;51.386;7.028;2022-08-19T08:10:44;24.90;99.90
2687;DHT22;1353;51.386;7.028;2022-08-19T08:13:10;26.40;99.90
2687;DHT22;1353;51.386;7.028;2022-08-19T08:15:38;26.00;99.90
2687;DHT22;1353;51.386;7.028;2022-08-19T08:18:05;26.80;99.90
2687;DHT22;1353;51.386;7.028;2022-08-19T08:20:32;25.20;99.90
2687;DHT22;1353;51.386;7.028;2022-08-19T08:23:00;26.70;99.90
2687;DHT22;1353;51.386;7.028;2022-08-19T08:25:44;27.00;99.90
2687;DHT22;1353;51.386;7.028;2022-08-19T08:28:11;27.60;99.90
2687;DHT22;1353;51.386;7.028;2022-08-19T08:30:38;27.60;99.90
2687;DHT22;1353;51.386;7.028;2022-08-19T08:33:07;27.40;99.90
2687;DHT22;1353;51.386;7.028;2022-08-19T08:35:34;27.80;99.90
2687;DHT22;1353;51.386;7.028;2022-08-19T08:38:03;28.70;99.90
2687;DHT22;1353;51.386;7.028;2022-08-19T08:40:37;28.40;99.90
2687;DHT22;1353;51.386;7.028;2022-08-19T08:43:07;28.00;99.90
2687;DHT22;1353;51.386;7.028;2022-08-19T08:45:40;27.50;99.90
2687;DHT22;1353;51.386;7.028;2022-08-19T08:48:18;27.20;99.90
2687;DHT22;1353;51.386;7.028;2022-08-19T08:50:46;27.10;99.90
2687;DHT22;1353;51.386;7.028;2022-08-19T08:53:18;28.40;99.90
2687;DHT22;1353;51.386;7.028;2022-08-19T08:55:46;29.40;99.90
2687;DHT22;1353;51.386;7.028;2022-08-19T08:58:16;29.60;99.90
2687;DHT22;1353;51.386;7.028;2022-08-19T09:00:46;30.50;97.80
2687;DHT22;1353;51.386;7.028;2022-08-19T09:03:18;31.50;93.30
2687;DHT22;1353;51.386;7.028;2022-08-19T09:05:57;32.00;88.70
2687;DHT22;1353;51.386;7.028;2022-08-19T09:08:35;30.90;87.40
2687;DHT22;1353;51.386;7.028;2022-08-19T09:11:07;29.00;94.40
2687;DHT22;1353;51.386;7.028;2022-08-19T09:13:41;29.40;94.00
2687;DHT22;1353;51.386;7.028;2022-08-19T09:16:12;29.00;94.90
2687;DHT22;1353;51.386;7.028;2022-08-19T09:18:41;28.20;97.50
2687;DHT22;1353;51.386;7.028;2022-08-19T09:21:08;27.50;99.90
2687;DHT22;1353;51.386;7.028;2022-08-19T09:23:37;27.30;99.90
2687;DHT22;1353;51.386;7.028;2022-08-19T09:26:07;26.40;99.90
2687;DHT22;1353;51.386;7.028;2022-08-19T09:28:34;26.50;99.90
2687;DHT22;1353;51.386;7.028;2022-08-19T09:31:02;26.40;99.90
2687;DHT22;1353;51.386;7.028;2022-08-19T09:33:29;27.70;99.90
2687;DHT22;1353;51.386;7.028;2022-08-19T09:36:03;28.30;99.80
2687;DHT22;1353;51.386;7.028;2022-08-19T09:38:30;29.20;97.60
2687;DHT22;1353;51.386;7.028;2022-08-19T09:41:03;29.30;94.40
2687;DHT22;1353;51.386;7.028;2022-08-19T09:43:31;29.90;93.20
2687;DHT22;1353;51.386;7.028;2022-08-19T09:45:58;28.90;89.90
2687;DHT22;1353;51.386;7.028;2022-08-19T09:48:25;27.50;94.00
2687;DHT22;1353;51.386;7.028;2022-08-19T09:50:52;28.10;93.10
2687;DHT22;1353;51.386;7.028;2022-08-19T09:53:19;30.10;88.10
2687;DHT22;1353;51.386;7.028;2022-08-19T09:55:47;29.90;84.80
2687;DHT22;1353;51.386;7.028;2022-08-19T09:58:15;31.00;75.90
2687;DHT22;1353;51.386;7.028;2022-08-19T10:00:42;31.20;70.70
2687;DHT22;1353;51.386;7.028;2022-08-19T10:03:09;31.00;65.00
2687;DHT22;1353;51.386;7.028;2022-08-19T10:05:36;31.70;65.20
2687;DHT22;1353;51.386;7.028;2022-08-19T10:08:17;30.60;67.50
2687;DHT22;1353;51.386;7.028;2022-08-19T10:10:45;29.10;71.40
2687;DHT22;1353;51.386;7.028;2022-08-19T10:13:13;27.90;82.30
2687;DHT22;1353;51.386;7.028;2022-08-19T10:15:42;27.80;86.90
2687;DHT22;1353;51.386;7.028;2022-08-19T10:18:09;28.20;80.10
2687;DHT22;1353;51.386;7.028;2022-08-19T10:20:36;28.60;80.40
2687;DHT22;1353;51.386;7.028;2022-08-19T10:23:03;29.20;80.10
2687;DHT22;1353;51.386;7.028;2022-08-19T10:25:32;29.90;73.20
2687;DHT22;1353;51.386;7.028;2022-08-19T10:27:59;27.80;82.20
2687;DHT22;1353;51.386;7.028;2022-08-19T10:30:26;28.70;79.10
2687;DHT22;1353;51.386;7.028;2022-08-19T10:32:54;30.30;74.60
2687;DHT22;1353;51.386;7.028;2022-08-19T10:35:21;30.20;71.00
2687;DHT22;1353;51.386;7.028;2022-08-19T10:37:48;29.00;74.80
2687;DHT22;1353;51.386;7.028;2022-08-19T10:40:15;29.10;75.20
2687;DHT22;1353;51.386;7.028;2022-08-19T10:42:43;27.80;80.80
2687;DHT22;1353;51.386;7.028;2022-08-19T10:45:10;27.10;85.10
2687;DHT22;1353;51.386;7.028;2022-08-19T10:47:37;27.20;84.50
2687;DHT22;1353;51.386;7.028;2022-08-19T10:50:06;27.50;86.30
2687;DHT22;1353;51.386;7.028;2022-08-19T10:52:50;29.60;76.80
2687;DHT22;1353;51.386;7.028;2022-08-19T10:55:20;30.50;70.20
2687;DHT22;1353;51.386;7.028;2022-08-19T10:58:10;30.80;66.20
2687;DHT22;1353;51.386;7.028;2022-08-19T11:00:38;31.80;62.20
2687;DHT22;1353;51.386;7.028;2022-08-19T11:03:06;32.60;57.20
2687;DHT22;1353;51.386;7.028;2022-08-19T11:05:34;32.10;53.20
2687;DHT22;1353;51.386;7.028;2022-08-19T11:08:03;30.80;53.20
2687;DHT22;1353;51.386;7.028;2022-08-19T11:10:30;29.40;60.20
2687;DHT22;1353;51.386;7.028;2022-08-19T11:12:57;28.50;64.40
2687;DHT22;1353;51.386;7.028;2022-08-19T11:15:26;28.80;62.50
2687;DHT22;1353;51.386;7.028;2022-08-19T11:17:54;28.90;61.70
2687;DHT22;1353;51.386;7.028;2022-08-19T11:20:21;29.80;60.90
2687;DHT22;1353;51.386;7.028;2022-08-19T11:22:51;31.90;56.50
2687;DHT22;1353;51.386;7.028;2022-08-19T11:25:18;32.00;53.60
2687;DHT22;1353;51.386;7.028;2022-08-19T11:27:45;31.20;51.10
2687;DHT22;1353;51.386;7.028;2022-08-19T11:30:13;31.70;50.50
2687;DHT22;1353;51.386;7.028;2022-08-19T11:32:41;33.10;48.50
2687;DHT22;1353;51.386;7.028;2022-08-19T11:35:08;32.40;46.60
2687;DHT22;1353;51.386;7.028;2022-08-19T11:37:36;32.80;44.30
2687;DHT22;1353;51.386;7.028;2022-08-19T11:40:06;29.30;54.50
2687;DHT22;1353;51.386;7.028;2022-08-19T11:42:33;29.60;55.60
2687;DHT22;1353;51.386;7.028;2022-08-19T11:45:17;29.80;54.00
2687;DHT22;1353;51.386;7.028;2022-08-19T11:47:44;30.40;52.70
2687;DHT22;1353;51.386;7.028;2022-08-19T11:50:12;30.30;51.80
2687;DHT22;1353;51.386;7.028;2022-08-19T11:52:39;29.60;53.80
2687;DHT22;1353;51.386;7.028;2022-08-19T11:55:09;28.70;56.20
2687;DHT22;1353;51.386;7.028;2022-08-19T11:57:35;29.40;55.70
2687;DHT22;1353;51.386;7.028;2022-08-19T12:00:04;27.90;60.00
2687;DHT22;1353;51.386;7.028;2022-08-19T12:02:31;27.80;62.40
2687;DHT22;1353;51.386;7.028;2022-08-19T12:04:58;28.80;57.80
2687;DHT22;1353;51.386;7.028;2022-08-19T12:07:28;29.90;54.20
2687;DHT22;1353;51.386;7.028;2022-08-19T12:09:57;30.70;51.70
2687;DHT22;1353;51.386;7.028;2022-08-19T12:12:25;31.80;46.30
2687;DHT22;1353;51.386;7.028;2022-08-19T12:14:52;31.70;44.80
2687;DHT22;1353;51.386;7.028;2022-08-19T12:17:22;29.50;48.50
2687;DHT22;1353;51.386;7.028;2022-08-19T12:19:49;30.00;49.90
2687;DHT22;1353;51.386;7.028;2022-08-19T12:22:15;30.20;48.90
2687;DHT22;1353;51.386;7.028;2022-08-19T12:24:42;31.10;45.00
2687;DHT22;1353;51.386;7.028;2022-08-19T12:27:09;31.10;44.00
2687;DHT22;1353;51.386;7.028;2022-08-19T12:29:37;31.70;41.80
2687;DHT22;1353;51.386;7.028;2022-08-19T12:32:04;32.30;41.90
2687;DHT22;1353;51.386;7.028;2022-08-19T12:34:31;32.90;39.40
2687;DHT22;1353;51.386;7.028;2022-08-19T12:37:01;32.20;38.50
2687;DHT22;1353;51.386;7.028;2022-08-19T12:39:28;31.90;37.80
2687;DHT22;1353;51.386;7.028;2022-08-19T12:41:55;33.30;37.50
2687;DHT22;1353;51.386;7.028;2022-08-19T12:44:23;33.10;36.60
2687;DHT22;1353;51.386;7.028;2022-08-19T12:46:51;32.90;36.50
2687;DHT22;1353;51.386;7.028;2022-08-19T12:49:18;31.80;38.50
2687;DHT22;1353;51.386;7.028;2022-08-19T12:51:45;31.30;39.90
2687;DHT22;1353;51.386;7.028;2022-08-19T12:54:12;30.90;39.00
2687;DHT22;1353;51.386;7.028;2022-08-19T12:56:38;30.20;39.80
2687;DHT22;1353;51.386;7.028;2022-08-19T12:59:06;30.90;40.30
2687;DHT22;1353;51.386;7.028;2022-08-19T13:01:33;30.70;38.00
2687;DHT22;1353;51.386;7.028;2022-08-19T13:04:02;30.90;36.10
2687;DHT22;1353;51.386;7.028;2022-08-19T13:06:29;30.90;37.20
2687;DHT22;1353;51.386;7.028;2022-08-19T13:08:56;31.00;34.00
2687;DHT22;1353;51.386;7.028;2022-08-19T13:11:23;30.70;35.30
2687;DHT22;1353;51.386;7.028;2022-08-19T13:13:51;31.00;34.70
2687;DHT22;1353;51.386;7.028;2022-08-19T13:16:19;30.30;36.80
2687;DHT22;1353;51.386;7.028;2022-08-19T13:18:47;29.00;39.20
2687;DHT22;1353;51.386;7.028;2022-08-19T13:21:16;28.00;41.40
2687;DHT22;1353;51.386;7.028;2022-08-19T13:23:45;28.40;43.50
2687;DHT22;1353;51.386;7.028;2022-08-19T13:26:12;28.00;43.80
2687;DHT22;1353;51.386;7.028;2022-08-19T13:28:40;27.40;46.80
2687;DHT22;1353;51.386;7.028;2022-08-19T13:31:27;28.10;45.60
2687;DHT22;1353;51.386;7.028;2022-08-19T13:34:12;28.60;43.60
2687;DHT22;1353;51.386;7.028;2022-08-19T13:36:40;28.40;41.10
2687;DHT22;1353;51.386;7.028;2022-08-19T13:39:08;28.90;40.50
2687;DHT22;1353;51.386;7.028;2022-08-19T13:41:36;28.70;40.90
2687;DHT22;1353;51.386;7.028;2022-08-19T13:44:03;28.60;40.60
2687;DHT22;1353;51.386;7.028;2022-08-19T13:46:30;28.40;39.90
2687;DHT22;1353;51.386;7.028;2022-08-19T13:48:57;28.50;39.30
2687;DHT22;1353;51.386;7.028;2022-08-19T13:51:23;28.70;40.20
2687;DHT22;1353;51.386;7.028;2022-08-19T13:53:52;28.20;40.70
2687;DHT22;1353;51.386;7.028;2022-08-19T13:56:19;28.60;40.80
2687;DHT22;1353;51.386;7.028;2022-08-19T13:58:46;28.40;39.90
2687;DHT22;1353;51.386;7.028;2022-08-19T14:01:19;27.70;41.50
2687;DHT22;1353;51.386;7.028;2022-08-19T14:03:46;28.20;41.80
2687;DHT22;1353;51.386;7.028;2022-08-19T14:06:12;28.10;40.80
2687;DHT22;1353;51.386;7.028;2022-08-19T14:08:39;27.90;40.60
2687;DHT22;1353;51.386;7.028;2022-08-19T14:11:08;28.40;40.70
2687;DHT22;1353;51.386;7.028;2022-08-19T14:13:35;27.90;40.20
2687;DHT22;1353;51.386;7.028;2022-08-19T14:16:07;27.90;39.60
2687;DHT22;1353;51.386;7.028;2022-08-19T14:18:34;27.90;40.00
2687;DHT22;1353;51.386;7.028;2022-08-19T14:21:01;27.70;39.60
2687;DHT22;1353;51.386;7.028;2022-08-19T14:23:28;27.20;41.50
2687;DHT22;1353;51.386;7.028;2022-08-19T14:26:03;26.90;43.00
2687;DHT22;1353;51.386;7.028;2022-08-19T14:28:31;26.70;43.90
2687;DHT22;1353;51.386;7.028;2022-08-19T14:30:58;27.20;43.30
2687;DHT22;1353;51.386;7.028;2022-08-19T14:33:25;27.50;42.40
2687;DHT22;1353;51.386;7.028;2022-08-19T14:35:51;27.00;42.70
2687;DHT22;1353;51.386;7.028;2022-08-19T14:38:19;27.20;42.30
2687;DHT22;1353;51.386;7.028;2022-08-19T14:40:46;27.20;41.70
2687;DHT22;1353;51.386;7.028;2022-08-19T14:43:14;26.90;43.30
2687;DHT22;1353;51.386;7.028;2022-08-19T14:45:44;27.30;42.30
2687;DHT22;1353;51.386;7.028;2022-08-19T14:48:11;27.40;42.00
2687;DHT22;1353;51.386;7.028;2022-08-19T14:50:38;27.40;42.00
2687;DHT22;1353;51.386;7.028;2022-08-19T14:53:07;27.50;42.40
2687;DHT22;1353;51.386;7.028;2022-08-19T14:55:34;27.60;42.60
2687;DHT22;1353;51.386;7.028;2022-08-19T14:58:01;27.70;43.50
2687;DHT22;1353;51.386;7.028;2022-08-19T15:00:28;27.80;42.90
2687;DHT22;1353;51.386;7.028;2022-08-19T15:02:56;27.70;43.20
2687;DHT22;1353;51.386;7.028;2022-08-19T15:05:24;27.40;43.50
2687;DHT22;1353;51.386;7.028;2022-08-19T15:07:52;27.40;42.70
2687;DHT22;1353;51.386;7.028;2022-08-19T15:10:23;26.70;45.40
2687;DHT22;1353;51.386;7.028;2022-08-19T15:12:50;26.70;46.00
2687;DHT22;1353;51.386;7.028;2022-08-19T15:15:17;26.60;46.30
2687;DHT22;1353;51.386;7.028;2022-08-19T15:17:44;26.40;47.00
2687;DHT22;1353;51.386;7.028;2022-08-19T15:20:19;26.10;49.10
2687;DHT22;1353;51.386;7.028;2022-08-19T15:22:48;26.40;49.40
2687;DHT22;1353;51.386;7.028;2022-08-19T15:25:17;26.50;50.80
2687;DHT22;1353;51.386;7.028;2022-08-19T15:27:46;26.60;50.90
2687;DHT22;1353;51.386;7.028;2022-08-19T15:30:19;26.70;51.20
2687;DHT22;1353;51.386;7.028;2022-08-19T15:32:47;26.60;50.20
2687;DHT22;1353;51.386;7.028;2022-08-19T15:35:15;27.10;49.10
2687;DHT22;1353;51.386;7.028;2022-08-19T15:37:43;27.00;48.40
2687;DHT22;1353;51.386;7.028;2022-08-19T15:40:11;27.00;47.70
2687;DHT22;1353;51.386;7.028;2022-08-19T15:42:38;27.10;48.00
2687;DHT22;1353;51.386;7.028;2022-08-19T15:45:07;26.70;47.70
2687;DHT22;1353;51.386;7.028;2022-08-19T15:47:36;26.70;48.20
2687;DHT22;1353;51.386;7.028;2022-08-19T15:50:05;26.70;47.90
2687;DHT22;1353;51.386;7.028;2022-08-19T15:52:33;26.30;47.20
2687;DHT22;1353;51.386;7.028;2022-08-19T15:55:00;26.40;47.30
2687;DHT22;1353;51.386;7.028;2022-08-19T15:57:27;26.30;48.30
2687;DHT22;1353;51.386;7.028;2022-08-19T16:00:12;26.30;46.50
2687;DHT22;1353;51.386;7.028;2022-08-19T16:02:59;26.30;45.20
2687;DHT22;1353;51.386;7.028;2022-08-19T16:05:43;26.10;45.40
2687;DHT22;1353;51.386;7.028;2022-08-19T16:08:34;25.90;44.80
2687;DHT22;1353;51.386;7.028;2022-08-19T16:11:01;26.00;44.80
2687;DHT22;1353;51.386;7.028;2022-08-19T16:13:28;26.00;45.40